createdAt,value
2022-12-20T00:00:57.940Z,224.41
2022-12-20T00:02:03.994Z,222.68
2022-12-20T00:03:07.466Z,223.88
2022-12-20T00:04:15.702Z,230.62
2022-12-20T00:05:19.942Z,230.92
2022-12-20T00:06:27.614Z,242.10
2022-12-20T00:07:31.101Z,237.14
2022-12-20T00:08:38.333Z,239.60
2022-12-20T00:09:41.764Z,248.55
2022-12-20T00:10:51.207Z,248.51
2022-12-20T00:11:54.769Z,238.37
2022-12-20T00:13:00.807Z,231.85
2022-12-20T00:14:04.266Z,250.06
2022-12-20T00:15:11.391Z,232.73
2022-12-20T00:16:19.454Z,228.13
2022-12-20T00:17:25.795Z,243.87
2022-12-20T00:18:29.240Z,224.12
2022-12-20T00:19:35.233Z,226.54
2022-12-20T00:20:38.748Z,240.98
2022-12-20T00:21:45.503Z,237.14
2022-12-20T00:22:49.597Z,253.21
2022-12-20T00:24:01.573Z,221.17
2022-12-20T00:25:05.989Z,226.47
2022-12-20T00:26:17.559Z,240.45
2022-12-20T00:27:22.383Z,225.67
2022-12-20T00:28:28.491Z,233.78
2022-12-20T00:29:35.403Z,242.37
2022-12-20T00:30:38.792Z,217.65
2022-12-20T00:31:44.996Z,222.74
2022-12-20T00:32:49.317Z,219.02
2022-12-20T00:33:58.742Z,223.19
2022-12-20T00:35:02.000Z,222.10
2022-12-20T00:36:09.790Z,215.70
2022-12-20T00:37:13.153Z,218.94
2022-12-20T00:38:20.197Z,214.47
2022-12-20T00:39:23.380Z,215.30
2022-12-20T00:40:29.384Z,211.32
2022-12-20T00:41:36.450Z,202.76
2022-12-20T00:42:42.390Z,214.02
2022-12-20T00:43:47.556Z,221.06
2022-12-20T00:44:53.534Z,215.76
2022-12-20T00:45:57.332Z,220.25
2022-12-20T00:47:03.365Z,204.88
2022-12-20T00:48:07.283Z,215.04
2022-12-20T00:49:14.448Z,208.01
2022-12-20T00:50:18.051Z,207.02
2022-12-20T00:51:27.679Z,217.12
2022-12-20T00:52:31.178Z,207.64
2022-12-20T00:53:38.038Z,199.62
2022-12-20T00:54:42.456Z,197.15
2022-12-20T00:55:50.301Z,212.73
2022-12-20T00:56:58.757Z,207.97
2022-12-20T00:58:02.003Z,211.15
2022-12-20T00:59:07.851Z,226.96
2022-12-20T01:00:13.498Z,217.36
2022-12-20T01:01:24.226Z,238.34
2022-12-20T01:02:27.900Z,226.67
2022-12-20T01:03:34.117Z,226.07
2022-12-20T01:04:38.631Z,223.59
2022-12-20T01:05:54.770Z,226.52
2022-12-20T01:06:58.611Z,232.58
2022-12-20T01:08:04.950Z,224.99
2022-12-20T01:09:08.291Z,212.58
2022-12-20T01:10:15.221Z,211.75
2022-12-20T01:11:23.097Z,204.85
2022-12-20T01:12:31.540Z,232.62
2022-12-20T01:13:39.045Z,228.24
2022-12-20T01:14:45.369Z,214.02
2022-12-20T01:15:49.986Z,204.83
2022-12-20T01:16:57.315Z,213.35
2022-12-20T01:18:01.074Z,213.98
2022-12-20T01:19:08.081Z,215.02
2022-12-20T01:20:12.727Z,203.99
2022-12-20T01:21:22.042Z,199.68
2022-12-20T01:22:26.239Z,202.63
2022-12-20T01:23:32.746Z,201.14
2022-12-20T01:24:38.634Z,207.19
2022-12-20T01:25:41.902Z,196.23
2022-12-20T01:26:49.325Z,210.14
2022-12-20T01:27:57.952Z,206.51
2022-12-20T01:29:04.321Z,206.19
2022-12-20T01:30:10.468Z,199.38
2022-12-20T01:31:20.408Z,200.37
2022-12-20T01:32:23.788Z,203.16
2022-12-20T01:33:30.801Z,206.48
2022-12-20T01:34:34.235Z,204.83
2022-12-20T01:35:40.166Z,211.08
2022-12-20T01:36:43.519Z,209.26
2022-12-20T01:37:49.614Z,214.10
2022-12-20T01:38:58.479Z,214.90
2022-12-20T01:40:04.445Z,218.25
2022-12-20T01:41:08.621Z,219.27
2022-12-20T01:42:18.020Z,218.38
2022-12-20T01:43:25.714Z,222.62
2022-12-20T01:45:10.850Z,219.75
2022-12-20T01:46:14.349Z,227.18
2022-12-20T01:47:21.545Z,224.81
2022-12-20T01:48:27.739Z,219.66
2022-12-20T01:49:41.630Z,218.32
2022-12-20T01:50:45.528Z,219.28
2022-12-20T01:51:59.441Z,227.70
2022-12-20T01:53:06.051Z,217.11
2022-12-20T01:54:22.208Z,215.51
2022-12-20T01:55:30.746Z,213.80
2022-12-20T01:56:39.320Z,220.98
2022-12-20T01:57:52.061Z,223.92
2022-12-20T01:59:03.851Z,212.85
2022-12-20T02:00:10.099Z,216.26
2022-12-20T02:01:23.453Z,212.05
2022-12-20T02:02:28.189Z,224.67
2022-12-20T02:03:35.970Z,205.92
2022-12-20T02:04:39.818Z,222.96
2022-12-20T02:05:49.788Z,231.55
2022-12-20T02:06:54.554Z,226.75
2022-12-20T02:08:01.236Z,220.65
2022-12-20T02:09:08.702Z,226.37
2022-12-20T02:10:16.655Z,223.06
2022-12-20T02:12:03.989Z,213.12
2022-12-20T02:13:35.406Z,223.85
2022-12-20T02:15:09.820Z,216.89
2022-12-20T02:16:25.230Z,220.10
2022-12-20T02:17:53.392Z,214.59
2022-12-20T02:19:18.008Z,213.05
2022-12-20T02:21:01.319Z,217.55
2022-12-20T02:22:26.531Z,224.10
2022-12-20T02:24:04.864Z,220.62
2022-12-20T02:25:49.562Z,211.57
2022-12-20T02:27:46.509Z,211.51
2022-12-20T02:29:23.896Z,207.72
2022-12-20T02:30:47.464Z,200.81
2022-12-20T02:32:05.369Z,203.45
2022-12-20T02:33:17.524Z,203.99
2022-12-20T02:34:26.302Z,213.01
2022-12-20T02:35:36.322Z,206.24
2022-12-20T02:36:40.255Z,214.22
2022-12-20T02:38:00.830Z,218.18
2022-12-20T02:39:05.132Z,198.47
2022-12-20T02:40:13.570Z,211.30
2022-12-20T02:41:25.918Z,207.28
2022-12-20T02:42:36.955Z,203.88
2022-12-20T02:44:01.405Z,204.32
2022-12-20T02:45:18.384Z,204.43
2022-12-20T02:46:31.008Z,206.84
2022-12-20T02:47:43.104Z,211.23
2022-12-20T02:48:54.929Z,204.54
2022-12-20T02:49:59.072Z,211.55
2022-12-20T02:51:11.736Z,204.45
2022-12-20T02:52:18.333Z,208.58
2022-12-20T02:53:26.627Z,208.17
2022-12-20T02:54:31.233Z,208.26
2022-12-20T02:55:51.097Z,218.04
2022-12-20T02:57:06.679Z,212.37
2022-12-20T02:58:29.504Z,213.39
2022-12-20T02:59:45.576Z,210.60
2022-12-20T03:00:59.701Z,211.46
2022-12-20T03:02:09.034Z,210.75
2022-12-20T03:03:25.231Z,216.92
2022-12-20T03:04:38.161Z,223.18
2022-12-20T03:05:48.090Z,221.25
2022-12-20T03:07:05.143Z,221.62
2022-12-20T03:08:09.532Z,211.86
2022-12-20T03:09:15.431Z,219.68
2022-12-20T03:10:20.677Z,223.13
2022-12-20T03:11:26.823Z,232.45
2022-12-20T03:12:30.251Z,214.02
2022-12-20T03:13:37.022Z,213.73
2022-12-20T03:14:44.750Z,214.90
2022-12-20T03:15:53.086Z,212.84
2022-12-20T03:16:56.691Z,198.80
2022-12-20T03:18:05.457Z,207.44
2022-12-20T03:19:09.659Z,208.48
2022-12-20T03:20:16.322Z,199.44
2022-12-20T03:21:19.934Z,206.13
2022-12-20T03:22:26.280Z,215.93
2022-12-20T03:23:29.684Z,217.71
2022-12-20T03:24:36.845Z,220.89
2022-12-20T03:25:44.905Z,229.49
2022-12-20T03:26:57.259Z,225.57
2022-12-20T03:28:01.536Z,259.31
2022-12-20T03:29:08.557Z,254.37
2022-12-20T03:30:15.330Z,244.20
2022-12-20T03:31:21.503Z,246.41
2022-12-20T03:32:28.539Z,245.37
2022-12-20T03:33:37.491Z,241.61
2022-12-20T03:34:43.472Z,231.68
2022-12-20T03:35:52.186Z,231.01
2022-12-20T03:36:55.607Z,239.44
2022-12-20T03:38:01.543Z,249.43
2022-12-20T03:39:05.577Z,241.71
2022-12-20T03:40:17.360Z,252.98
2022-12-20T03:41:23.999Z,251.71
2022-12-20T03:42:32.096Z,254.22
2022-12-20T03:43:35.530Z,269.05
2022-12-20T03:44:41.798Z,264.43
2022-12-20T03:45:46.043Z,267.43
2022-12-20T03:46:52.738Z,260.47
2022-12-20T03:47:57.430Z,261.70
2022-12-20T03:49:08.900Z,257.14
2022-12-20T03:50:20.244Z,261.80
2022-12-20T03:51:26.243Z,263.74
2022-12-20T03:52:30.378Z,257.17
2022-12-20T03:53:36.702Z,251.34
2022-12-20T03:54:40.326Z,259.18
2022-12-20T03:55:53.103Z,260.47
2022-12-20T03:56:56.576Z,252.50
2022-12-20T03:58:03.457Z,253.14
2022-12-20T03:59:12.449Z,248.87
2022-12-20T04:00:20.869Z,251.51
2022-12-20T04:01:36.805Z,260.79
2022-12-20T04:02:40.816Z,254.32
2022-12-20T04:03:49.593Z,271.56
2022-12-20T04:04:58.330Z,270.83
2022-12-20T04:06:02.092Z,301.87
2022-12-20T04:07:08.026Z,298.59
2022-12-20T04:08:13.459Z,285.02
2022-12-20T04:09:20.309Z,301.17
2022-12-20T04:10:28.771Z,275.88
2022-12-20T04:11:36.175Z,279.16
2022-12-20T04:12:44.193Z,285.63
2022-12-20T04:13:55.966Z,277.74
2022-12-20T04:15:00.638Z,276.39
2022-12-20T04:16:08.949Z,306.32
2022-12-20T04:17:12.273Z,301.01
2022-12-20T04:18:20.201Z,298.30
2022-12-20T04:19:27.019Z,300.42
2022-12-20T04:20:33.988Z,298.20
2022-12-20T04:22:02.670Z,274.18
2022-12-20T04:23:16.398Z,282.96
2022-12-20T04:24:23.687Z,278.35
2022-12-20T04:25:47.061Z,273.76
2022-12-20T04:26:55.345Z,273.25
2022-12-20T04:27:58.729Z,270.32
2022-12-20T04:29:04.929Z,279.32
2022-12-20T04:30:11.962Z,291.86
2022-12-20T04:31:23.779Z,285.92
2022-12-20T04:32:28.845Z,286.91
2022-12-20T04:33:35.609Z,289.79
2022-12-20T04:34:39.016Z,262.76
2022-12-20T04:35:47.697Z,261.66
2022-12-20T04:36:51.921Z,272.13
2022-12-20T04:38:07.926Z,272.86
2022-12-20T04:39:11.231Z,279.44
2022-12-20T04:40:27.721Z,279.04
2022-12-20T04:41:36.804Z,278.58
2022-12-20T04:42:46.637Z,262.22
2022-12-20T04:43:57.610Z,270.50
2022-12-20T04:45:08.596Z,286.74
2022-12-20T04:46:14.552Z,287.96
2022-12-20T04:47:17.907Z,282.93
2022-12-20T04:49:48.385Z,279.79
2022-12-20T04:50:59.285Z,302.05
2022-12-20T04:52:18.603Z,296.67
2022-12-20T04:53:39.262Z,293.49
2022-12-20T04:54:42.820Z,308.32
2022-12-20T04:55:56.021Z,280.81
2022-12-20T04:57:00.384Z,297.73
2022-12-20T04:58:07.892Z,330.12
2022-12-20T04:59:17.004Z,296.06
2022-12-20T05:00:23.373Z,286.39
2022-12-20T05:01:37.888Z,318.81
2022-12-20T05:02:41.959Z,369.41
2022-12-20T05:03:52.312Z,357.43
2022-12-20T05:04:57.128Z,304.84
2022-12-20T05:06:05.802Z,417.00
2022-12-20T05:07:09.865Z,393.01
2022-12-20T05:08:18.577Z,325.45
2022-12-20T05:09:26.489Z,317.86
2022-12-20T05:10:32.757Z,298.92
2022-12-20T05:11:41.047Z,311.60
2022-12-20T05:12:45.869Z,339.84
2022-12-20T05:14:00.123Z,314.12
2022-12-20T05:15:03.565Z,299.49
2022-12-20T05:16:10.987Z,289.04
2022-12-20T05:17:15.012Z,260.53
2022-12-20T05:18:21.103Z,292.92
2022-12-20T05:19:32.033Z,288.16
2022-12-20T05:20:39.355Z,273.19
2022-12-20T05:22:12.785Z,278.26
2022-12-20T05:23:34.921Z,308.59
2022-12-20T05:25:03.263Z,303.98
2022-12-20T05:26:24.824Z,292.29
2022-12-20T05:27:32.561Z,291.51
2022-12-20T05:28:37.636Z,282.75
2022-12-20T05:29:43.823Z,314.24
2022-12-20T05:30:47.274Z,322.71
2022-12-20T05:31:55.928Z,288.00
2022-12-20T05:33:00.613Z,323.64
2022-12-20T05:34:07.492Z,317.50
2022-12-20T05:35:13.239Z,286.72
2022-12-20T05:36:19.606Z,304.27
2022-12-20T05:37:27.397Z,296.97
2022-12-20T05:38:36.745Z,320.72
2022-12-20T05:39:46.865Z,323.11
2022-12-20T05:40:58.792Z,310.94
2022-12-20T05:42:02.810Z,314.54
2022-12-20T05:43:09.279Z,338.42
2022-12-20T05:44:22.483Z,319.92
2022-12-20T05:45:29.188Z,348.40
2022-12-20T05:46:41.010Z,335.43
2022-12-20T05:47:49.381Z,336.68
2022-12-20T05:48:55.702Z,334.98
2022-12-20T05:50:01.334Z,351.00
2022-12-20T05:51:12.526Z,354.39
2022-12-20T05:52:38.705Z,402.34
2022-12-20T05:53:45.563Z,410.42
2022-12-20T05:54:50.528Z,419.35
2022-12-20T05:55:58.897Z,372.75
2022-12-20T05:57:06.226Z,367.33
2022-12-20T05:58:16.502Z,367.77
2022-12-20T05:59:31.460Z,517.61
2022-12-20T06:00:34.910Z,463.81
2022-12-20T06:01:41.944Z,490.41
2022-12-20T06:02:46.010Z,383.12
2022-12-20T06:03:53.022Z,417.58
2022-12-20T06:04:59.334Z,413.25
2022-12-20T06:06:10.118Z,421.05
2022-12-20T06:07:19.740Z,397.93
2022-12-20T06:08:32.053Z,411.80
2022-12-20T06:09:37.556Z,449.83
2022-12-20T06:10:47.159Z,456.97
2022-12-20T06:11:51.713Z,403.65
2022-12-20T06:12:58.545Z,344.71
2022-12-20T06:14:02.705Z,359.44
2022-12-20T06:15:11.088Z,342.59
2022-12-20T06:16:20.903Z,385.89
2022-12-20T06:17:24.482Z,350.61
2022-12-20T06:18:32.388Z,333.15
2022-12-20T06:19:40.344Z,308.22
2022-12-20T06:20:53.857Z,330.49
2022-12-20T06:22:01.387Z,352.71
2022-12-20T06:23:27.677Z,348.69
2022-12-20T06:24:48.553Z,314.83
2022-12-20T06:25:58.256Z,344.94
2022-12-20T06:27:07.255Z,323.73
2022-12-20T06:28:13.410Z,344.02
2022-12-20T06:29:17.776Z,330.45
2022-12-20T06:30:34.086Z,337.87
2022-12-20T06:31:58.124Z,324.53
2022-12-20T06:33:06.041Z,344.13
2022-12-20T06:34:09.597Z,357.35
2022-12-20T06:35:20.418Z,336.81
2022-12-20T06:36:28.861Z,313.65
2022-12-20T06:37:32.563Z,282.55
2022-12-20T06:38:38.734Z,312.13
2022-12-20T06:39:44.909Z,313.07
2022-12-20T06:40:50.927Z,330.76
2022-12-20T06:41:55.347Z,310.24
2022-12-20T06:43:01.392Z,305.72
2022-12-20T06:44:05.312Z,295.24
2022-12-20T06:45:13.427Z,283.56
2022-12-20T06:46:17.517Z,269.25
2022-12-20T06:47:25.376Z,276.71
2022-12-20T06:48:28.801Z,284.61
2022-12-20T06:49:35.331Z,302.52
2022-12-20T06:50:52.094Z,302.81
2022-12-20T06:52:01.907Z,313.08
2022-12-20T06:53:20.136Z,327.54
2022-12-20T06:54:23.531Z,317.32
2022-12-20T06:55:32.615Z,303.44
2022-12-20T06:56:41.091Z,299.72
2022-12-20T06:57:49.270Z,297.57
2022-12-20T06:58:53.510Z,278.58
2022-12-20T06:59:59.589Z,286.80
2022-12-20T07:01:03.259Z,294.36
2022-12-20T07:02:09.698Z,286.01
2022-12-20T07:03:16.774Z,347.35
2022-12-20T07:04:21.545Z,350.30
2022-12-20T07:05:27.756Z,364.75
2022-12-20T07:06:31.232Z,363.97
2022-12-20T07:07:44.572Z,375.96
2022-12-20T07:08:51.225Z,357.04
2022-12-20T07:09:57.951Z,341.42
2022-12-20T07:11:12.163Z,312.94
2022-12-20T07:12:15.473Z,311.31
2022-12-20T07:13:21.770Z,322.59
2022-12-20T07:14:27.836Z,315.75
2022-12-20T07:15:32.620Z,331.72
2022-12-20T07:16:39.124Z,313.69
2022-12-20T07:17:44.980Z,313.94
2022-12-20T07:18:50.904Z,306.40
2022-12-20T07:19:56.931Z,314.62
2022-12-20T07:21:02.656Z,324.46
2022-12-20T07:22:09.239Z,327.92
2022-12-20T07:23:12.622Z,336.14
2022-12-20T07:24:19.166Z,302.53
2022-12-20T07:25:22.846Z,307.11
2022-12-20T07:26:32.273Z,303.95
2022-12-20T07:27:35.983Z,305.14
2022-12-20T07:28:43.305Z,328.69
2022-12-20T07:29:49.347Z,367.73
2022-12-20T07:30:53.108Z,354.52
2022-12-20T07:32:00.025Z,323.08
2022-12-20T07:33:03.379Z,293.76
2022-12-20T07:34:09.463Z,306.77
2022-12-20T07:35:17.279Z,311.34
2022-12-20T07:36:23.419Z,331.30
2022-12-20T07:37:32.159Z,339.61
2022-12-20T07:38:38.543Z,375.93
2022-12-20T07:39:44.743Z,335.04
2022-12-20T07:40:48.165Z,342.52
2022-12-20T07:42:00.177Z,376.22
2022-12-20T07:43:04.474Z,387.15
2022-12-20T07:44:10.385Z,379.34
2022-12-20T07:45:13.680Z,378.10
2022-12-20T07:46:21.770Z,376.96
2022-12-20T07:47:27.889Z,384.04
2022-12-20T07:48:36.344Z,347.22
2022-12-20T07:49:43.283Z,351.37
2022-12-20T07:50:47.233Z,373.07
2022-12-20T07:52:01.003Z,349.54
2022-12-20T07:53:12.564Z,350.07
2022-12-20T07:54:27.392Z,351.43
2022-12-20T07:55:32.534Z,330.45
2022-12-20T07:56:46.070Z,326.04
2022-12-20T07:58:05.132Z,387.34
2022-12-20T07:59:15.628Z,366.18
2022-12-20T08:00:23.230Z,354.34
2022-12-20T08:01:32.174Z,354.89
2022-12-20T08:02:47.566Z,330.77
2022-12-20T08:04:03.616Z,297.06
2022-12-20T08:05:14.009Z,334.93
2022-12-20T08:06:23.037Z,313.81
2022-12-20T08:07:33.270Z,320.60
2022-12-20T08:08:46.338Z,299.90
2022-12-20T08:09:52.563Z,303.13
2022-12-20T08:10:59.437Z,325.86
2022-12-20T08:12:07.516Z,342.74
2022-12-20T08:13:14.409Z,361.92
2022-12-20T08:14:24.791Z,351.12
2022-12-20T08:15:30.419Z,356.86
2022-12-20T08:16:36.427Z,414.59
2022-12-20T08:17:40.504Z,361.83
2022-12-20T08:18:46.516Z,304.70
2022-12-20T08:19:52.676Z,295.99
2022-12-20T08:20:59.440Z,279.60
2022-12-20T08:22:05.556Z,311.49
2022-12-20T08:23:12.260Z,322.47
2022-12-20T08:24:18.154Z,306.68
2022-12-20T08:25:25.134Z,321.64
2022-12-20T08:26:31.188Z,372.42
2022-12-20T08:27:37.426Z,327.98
2022-12-20T08:28:47.367Z,309.55
2022-12-20T08:29:50.826Z,295.84
2022-12-20T08:30:56.898Z,291.30
2022-12-20T08:32:02.976Z,302.86
2022-12-20T08:33:09.103Z,323.11
2022-12-20T08:34:15.933Z,338.42
2022-12-20T08:35:21.994Z,323.25
2022-12-20T08:36:25.412Z,334.56
2022-12-20T08:37:31.461Z,310.73
2022-12-20T08:38:37.919Z,333.90
2022-12-20T08:39:44.626Z,328.10
2022-12-20T08:40:48.055Z,324.05
2022-12-20T08:41:54.046Z,326.19
2022-12-20T08:42:58.863Z,325.29
2022-12-20T08:44:07.846Z,319.29
2022-12-20T08:45:15.541Z,326.94
2022-12-20T08:46:21.610Z,339.89
2022-12-20T08:47:24.974Z,342.78
2022-12-20T08:48:32.701Z,318.73
2022-12-20T08:49:43.972Z,307.81
2022-12-20T08:51:01.406Z,310.45
2022-12-20T08:52:07.656Z,321.24
2022-12-20T08:53:13.602Z,306.88
2022-12-20T08:54:19.798Z,285.03
2022-12-20T08:55:29.414Z,309.06
2022-12-20T08:56:36.508Z,301.70
2022-12-20T08:57:42.404Z,294.73
2022-12-20T08:58:46.655Z,299.93
2022-12-20T08:59:55.211Z,305.34
2022-12-20T09:01:06.670Z,305.37
2022-12-20T09:02:13.948Z,303.28
2022-12-20T09:03:20.077Z,332.44
2022-12-20T09:04:26.055Z,305.27
2022-12-20T09:05:32.066Z,323.91
2022-12-20T09:06:38.813Z,331.54
2022-12-20T09:07:45.597Z,333.44
2022-12-20T09:08:49.902Z,296.06
2022-12-20T09:09:55.895Z,330.24
2022-12-20T09:11:09.537Z,306.02
2022-12-20T09:12:13.109Z,363.62
2022-12-20T09:13:20.173Z,374.15
2022-12-20T09:14:26.128Z,344.71
2022-12-20T09:15:36.595Z,319.83
2022-12-20T09:16:42.602Z,315.89
2022-12-20T09:17:48.526Z,304.68
2022-12-20T09:19:00.742Z,305.35
2022-12-20T09:20:12.065Z,302.04
2022-12-20T09:21:22.019Z,292.57
2022-12-20T09:22:28.104Z,298.31
2022-12-20T09:23:33.091Z,317.21
2022-12-20T09:24:41.519Z,308.19
2022-12-20T09:25:50.226Z,294.84
2022-12-20T09:27:00.049Z,284.79
2022-12-20T09:28:06.178Z,290.53
2022-12-20T09:29:12.320Z,290.63
2022-12-20T09:30:19.740Z,295.68
2022-12-20T09:31:30.012Z,304.07
2022-12-20T09:32:33.676Z,297.33
2022-12-20T09:33:39.716Z,306.28
2022-12-20T09:34:43.203Z,307.18
2022-12-20T09:35:50.716Z,301.74
2022-12-20T09:36:54.191Z,314.05
2022-12-20T09:38:01.497Z,307.57
2022-12-20T09:39:07.798Z,298.28
2022-12-20T09:40:21.291Z,317.16
2022-12-20T09:41:37.450Z,306.09
2022-12-20T09:42:44.239Z,305.25
2022-12-20T09:43:48.148Z,303.69
2022-12-20T09:44:54.657Z,298.79
2022-12-20T09:46:04.960Z,305.12
2022-12-20T09:47:23.747Z,311.17
2022-12-20T09:48:36.802Z,296.30
2022-12-20T09:49:49.054Z,314.92
2022-12-20T09:51:15.830Z,349.31
2022-12-20T09:52:50.743Z,389.86
2022-12-20T09:54:18.517Z,380.33
2022-12-20T09:55:37.874Z,374.92
2022-12-20T09:57:04.580Z,354.67
2022-12-20T09:58:45.969Z,372.60
2022-12-20T09:59:52.210Z,345.62
2022-12-20T10:00:58.404Z,340.27
2022-12-20T10:02:19.487Z,312.30
2022-12-20T10:03:39.015Z,294.45
2022-12-20T10:04:45.539Z,294.09
2022-12-20T10:05:57.767Z,269.79
2022-12-20T10:07:39.253Z,273.91
2022-12-20T10:08:56.439Z,268.89
2022-12-20T10:10:35.766Z,247.79
2022-12-20T10:12:07.208Z,256.14
2022-12-20T10:13:49.657Z,267.08
2022-12-20T10:15:21.865Z,255.27
2022-12-20T10:16:48.021Z,281.48
2022-12-20T10:18:19.847Z,269.65
2022-12-20T10:20:08.742Z,269.22
2022-12-20T10:21:35.816Z,298.36
2022-12-20T10:22:55.643Z,281.67
2022-12-20T10:24:07.317Z,272.99
2022-12-20T10:25:23.513Z,264.74
2022-12-20T10:26:31.679Z,258.35
2022-12-20T10:27:39.001Z,265.79
2022-12-20T10:28:50.753Z,258.16
2022-12-20T10:30:00.913Z,282.03
2022-12-20T10:31:14.316Z,270.08
2022-12-20T10:32:29.333Z,298.56
2022-12-20T10:33:33.924Z,283.34
2022-12-20T10:34:48.473Z,283.58
2022-12-20T10:35:52.580Z,279.87
2022-12-20T10:37:16.898Z,298.18
2022-12-20T10:38:23.070Z,330.16
2022-12-20T10:39:46.202Z,331.11
2022-12-20T10:41:23.035Z,288.27
2022-12-20T10:42:43.496Z,277.00
2022-12-20T10:43:57.753Z,278.22
2022-12-20T10:45:02.804Z,266.12
2022-12-20T10:46:12.917Z,267.83
2022-12-20T10:47:40.930Z,264.90
2022-12-20T10:48:51.933Z,275.05
2022-12-20T10:50:18.174Z,279.90
2022-12-20T10:51:26.057Z,299.46
2022-12-20T10:52:29.736Z,282.36
2022-12-20T10:53:36.076Z,276.11
2022-12-20T10:54:46.528Z,275.54
2022-12-20T10:55:52.279Z,271.22
2022-12-20T10:57:02.402Z,250.96
2022-12-20T10:58:18.512Z,267.23
2022-12-20T10:59:39.888Z,296.19
2022-12-20T11:00:47.532Z,291.31
2022-12-20T11:01:52.263Z,294.23
2022-12-20T11:03:13.499Z,283.72
2022-12-20T11:04:32.568Z,262.03
2022-12-20T11:05:39.010Z,281.92
2022-12-20T11:06:48.658Z,271.22
2022-12-20T11:09:32.715Z,282.22
2022-12-20T11:10:36.545Z,274.04
2022-12-20T11:11:42.567Z,282.79
2022-12-20T11:12:56.938Z,284.36
2022-12-20T11:14:18.892Z,288.68
2022-12-20T11:15:34.176Z,302.51
2022-12-20T11:16:44.712Z,297.14
2022-12-20T11:17:53.761Z,294.30
2022-12-20T11:19:25.375Z,289.82
2022-12-20T11:20:48.490Z,289.98
2022-12-20T11:22:12.712Z,288.07
2022-12-20T11:23:38.864Z,289.56
2022-12-20T11:25:02.768Z,287.46
2022-12-20T11:26:39.430Z,291.71
2022-12-20T11:28:09.351Z,278.42
2022-12-20T11:29:50.723Z,283.48
2022-12-20T11:31:18.887Z,286.00
2022-12-20T11:32:53.324Z,284.99
2022-12-20T11:34:20.040Z,296.36
2022-12-20T11:35:42.078Z,300.22
2022-12-20T11:37:20.692Z,318.70
2022-12-20T11:38:45.670Z,358.81
2022-12-20T11:40:24.840Z,364.00
2022-12-20T11:41:47.813Z,368.20
2022-12-20T11:43:17.462Z,360.29
2022-12-20T11:44:55.357Z,319.95
2022-12-20T11:46:31.045Z,350.51
2022-12-20T11:48:10.071Z,344.88
2022-12-20T11:50:03.153Z,355.07
2022-12-20T11:51:27.169Z,356.92
2022-12-20T11:52:49.738Z,345.78
2022-12-20T11:54:13.791Z,411.56
2022-12-20T11:55:27.901Z,368.33
2022-12-20T11:56:44.770Z,333.26
2022-12-20T11:58:21.074Z,330.97
2022-12-20T11:59:40.676Z,317.09
2022-12-20T12:00:59.276Z,315.69
2022-12-20T12:02:16.167Z,324.81
2022-12-20T12:03:30.856Z,349.45
2022-12-20T12:04:47.072Z,353.86
2022-12-20T12:05:59.205Z,357.95
2022-12-20T12:07:16.641Z,315.06
2022-12-20T12:08:34.530Z,351.06
2022-12-20T12:09:51.278Z,342.42
2022-12-20T12:11:25.719Z,306.06
2022-12-20T12:12:45.669Z,321.86
2022-12-20T12:13:51.476Z,307.92
2022-12-20T12:15:14.317Z,307.81
2022-12-20T12:16:30.882Z,339.65
2022-12-20T12:17:50.361Z,362.81
2022-12-20T12:18:56.948Z,325.19
2022-12-20T12:20:29.925Z,314.26
2022-12-20T12:21:45.836Z,375.13
2022-12-20T12:23:01.713Z,358.48
2022-12-20T12:24:26.983Z,337.81
2022-12-20T12:25:30.436Z,360.03
2022-12-20T12:26:41.212Z,418.71
2022-12-20T12:27:48.724Z,432.09
2022-12-20T12:28:57.274Z,431.03
2022-12-20T12:30:03.447Z,434.00
2022-12-20T12:31:21.676Z,403.71
2022-12-20T12:32:44.134Z,359.16
2022-12-20T12:34:08.807Z,339.03
2022-12-20T12:35:56.292Z,349.23
2022-12-20T12:37:51.160Z,381.63
2022-12-20T12:39:49.530Z,382.07
2022-12-20T12:41:43.277Z,334.44
2022-12-20T12:43:39.083Z,365.20
2022-12-20T12:44:57.748Z,348.41
2022-12-20T12:46:14.675Z,381.83
2022-12-20T12:47:39.900Z,364.62
2022-12-20T12:48:57.698Z,359.65
2022-12-20T12:50:08.246Z,325.73
2022-12-20T12:51:22.227Z,326.98
2022-12-20T12:52:46.603Z,306.30
2022-12-20T12:53:56.934Z,306.04
2022-12-20T12:55:03.194Z,306.34
2022-12-20T12:56:45.475Z,308.82
2022-12-20T12:57:57.928Z,318.27
2022-12-20T12:59:54.729Z,314.30
2022-12-20T13:01:05.205Z,312.31
2022-12-20T13:02:37.546Z,315.05
2022-12-20T13:04:09.731Z,321.63
2022-12-20T13:05:38.675Z,332.19
2022-12-20T13:07:00.340Z,326.23
2022-12-20T13:08:17.712Z,313.78
2022-12-20T13:09:38.144Z,322.61
2022-12-20T13:11:06.199Z,325.14
2022-12-20T13:13:02.879Z,321.37
2022-12-20T13:14:30.895Z,350.02
2022-12-20T13:16:16.908Z,355.15
2022-12-20T13:17:53.073Z,346.18
2022-12-20T13:19:16.611Z,380.95
2022-12-20T13:20:24.541Z,393.56
2022-12-20T13:21:40.463Z,407.80
2022-12-20T13:23:17.987Z,390.50
2022-12-20T13:24:55.235Z,434.20
2022-12-20T13:25:58.887Z,431.43
2022-12-20T13:27:24.636Z,342.47
2022-12-20T13:28:49.631Z,324.44
2022-12-20T13:30:19.083Z,329.85
2022-12-20T13:31:36.972Z,363.71
2022-12-20T13:33:15.832Z,399.67
2022-12-20T13:34:41.553Z,376.33
2022-12-20T13:36:19.684Z,341.39
2022-12-20T13:37:57.361Z,329.45
2022-12-20T13:39:33.650Z,343.53
2022-12-20T13:40:45.616Z,363.23
2022-12-20T13:42:18.573Z,345.28
2022-12-20T13:43:37.225Z,340.86
2022-12-20T13:44:48.790Z,375.79
2022-12-20T13:46:06.242Z,395.48
2022-12-20T13:47:37.680Z,368.28
2022-12-20T13:48:54.207Z,407.31
2022-12-20T13:50:05.808Z,378.38
2022-12-20T13:51:10.683Z,379.85
2022-12-20T13:52:33.158Z,377.71
2022-12-20T13:53:42.436Z,361.00
2022-12-20T13:54:50.790Z,376.63
2022-12-20T13:55:59.236Z,375.18
2022-12-20T13:57:06.701Z,432.80
2022-12-20T13:58:25.166Z,406.93
2022-12-20T13:59:33.837Z,378.47
2022-12-20T14:00:41.520Z,354.97
2022-12-20T14:01:57.062Z,356.68
2022-12-20T14:03:03.695Z,372.55
2022-12-20T14:04:10.959Z,368.61
2022-12-20T14:05:26.728Z,359.12
2022-12-20T14:06:33.186Z,375.75
2022-12-20T14:07:41.992Z,365.57
2022-12-20T14:08:52.187Z,353.62
2022-12-20T14:10:02.968Z,392.31
2022-12-20T14:11:16.047Z,428.77
2022-12-20T14:12:27.380Z,478.90
2022-12-20T14:13:39.678Z,435.20
2022-12-20T14:14:49.999Z,441.67
2022-12-20T14:15:58.646Z,442.14
2022-12-20T14:17:19.848Z,408.19
2022-12-20T14:18:29.049Z,438.34
2022-12-20T14:19:33.351Z,422.02
2022-12-20T14:20:42.408Z,414.00
2022-12-20T14:21:50.594Z,373.60
2022-12-20T14:23:06.439Z,398.72
2022-12-20T14:24:21.701Z,378.80
2022-12-20T14:25:38.706Z,383.84
2022-12-20T14:26:48.649Z,395.04
2022-12-20T14:27:52.295Z,437.62
2022-12-20T14:29:07.981Z,438.32
2022-12-20T14:30:35.004Z,390.73
2022-12-20T14:31:46.666Z,414.84
2022-12-20T14:32:50.967Z,393.46
2022-12-20T14:34:10.711Z,361.38
2022-12-20T14:35:21.564Z,368.24
2022-12-20T14:36:27.611Z,382.88
2022-12-20T14:37:36.474Z,364.44
2022-12-20T14:38:45.382Z,365.21
2022-12-20T14:40:19.586Z,386.85
2022-12-20T14:41:39.277Z,416.52
2022-12-20T14:42:46.644Z,408.65
2022-12-20T14:44:07.132Z,389.58
2022-12-20T14:45:21.162Z,403.57
2022-12-20T14:46:27.520Z,398.92
2022-12-20T14:47:34.533Z,389.45
2022-12-20T14:48:41.502Z,433.06
2022-12-20T14:49:55.463Z,415.33
2022-12-20T14:51:01.604Z,424.84
2022-12-20T14:52:20.928Z,424.09
2022-12-20T14:53:30.694Z,433.09
2022-12-20T14:56:26.433Z,407.23
2022-12-20T14:57:48.999Z,402.78
2022-12-20T14:59:17.532Z,399.26
2022-12-20T15:00:28.684Z,426.32
2022-12-20T15:01:35.837Z,406.15
2022-12-20T15:02:55.474Z,414.43
2022-12-20T15:04:01.010Z,420.56
2022-12-20T15:05:27.658Z,422.92